createdAt,value
2019-05-03T00:01:54.768Z,4.90
2019-05-03T00:04:24.585Z,5.10
2019-05-03T00:06:55.643Z,4.55
2019-05-03T00:09:25.192Z,5.87
2019-05-03T00:11:54.747Z,5.22
2019-05-03T00:14:24.541Z,4.87
2019-05-03T00:16:54.060Z,5.03
2019-05-03T00:19:23.452Z,4.55
2019-05-03T00:21:52.906Z,4.33
2019-05-03T00:24:24.021Z,4.90
2019-05-03T00:26:53.554Z,5.00
2019-05-03T00:29:24.595Z,5.00
2019-05-03T00:31:54.682Z,4.92
2019-05-03T00:34:46.454Z,5.25
2019-05-03T00:37:25.692Z,4.80
2019-05-03T00:39:56.728Z,5.10
2019-05-03T00:42:26.122Z,4.47
2019-05-03T00:44:58.252Z,4.92
2019-05-03T00:47:27.640Z,5.15
2019-05-03T00:49:57.064Z,4.95
2019-05-03T00:52:26.619Z,4.72
2019-05-03T00:54:56.102Z,5.33
2019-05-03T00:57:27.196Z,5.60
2019-05-03T00:59:56.670Z,4.83
2019-05-03T01:02:26.394Z,4.55
2019-05-03T01:04:56.025Z,4.67
2019-05-03T01:07:25.453Z,5.45
2019-05-03T01:09:54.892Z,5.33
2019-05-03T01:12:24.400Z,6.37
2019-05-03T01:14:55.466Z,6.03
2019-05-03T01:17:24.928Z,7.30
2019-05-03T01:19:54.474Z,7.37
2019-05-03T01:22:23.960Z,6.05
2019-05-03T01:24:53.407Z,6.10
2019-05-03T01:27:22.817Z,6.43
2019-05-03T01:29:53.924Z,6.58
2019-05-03T01:32:23.296Z,7.00
2019-05-03T01:34:52.890Z,6.42
2019-05-03T01:37:22.651Z,5.33
2019-05-03T01:39:52.707Z,4.78
2019-05-03T01:42:22.750Z,5.97
2019-05-03T01:44:52.427Z,6.00
2019-05-03T01:47:23.503Z,5.60
2019-05-03T01:50:12.182Z,6.20
2019-05-03T01:52:43.340Z,5.75
2019-05-03T01:55:15.745Z,6.20
2019-05-03T01:57:44.290Z,5.92
2019-05-03T02:00:15.815Z,5.53
2019-05-03T02:02:52.482Z,5.85
2019-05-03T02:05:39.984Z,6.62
2019-05-03T02:08:12.489Z,5.28
2019-05-03T02:13:12.319Z,5.67
2019-05-03T02:15:42.952Z,5.75
2019-05-03T02:18:15.168Z,5.58
2019-05-03T02:20:44.841Z,6.50
2019-05-03T02:23:14.351Z,5.83
2019-05-03T02:25:55.534Z,5.92
2019-05-03T02:28:18.074Z,5.93
2019-05-03T02:30:47.518Z,5.58
2019-05-03T02:33:18.576Z,6.37
2019-05-03T02:35:48.055Z,6.17
2019-05-03T02:38:17.579Z,6.08
2019-05-03T02:40:47.096Z,6.15
2019-05-03T02:43:36.545Z,5.37
2019-05-03T02:46:25.347Z,5.47
2019-05-03T02:48:56.657Z,5.92
2019-05-03T02:51:29.066Z,6.60
2019-05-03T02:53:58.609Z,5.72
2019-05-03T02:56:29.648Z,6.03
2019-05-03T02:58:59.036Z,5.95
2019-05-03T03:01:29.442Z,6.28
2019-05-03T03:03:59.538Z,6.37
2019-05-03T03:06:31.004Z,6.42
2019-05-03T03:09:00.574Z,6.47
2019-05-03T03:11:35.564Z,6.07
2019-05-03T03:14:07.710Z,5.55
2019-05-03T03:16:37.788Z,6.42
2019-05-03T03:19:07.222Z,5.97
2019-05-03T03:21:40.780Z,5.95
2019-05-03T03:24:16.893Z,5.58
2019-05-03T03:26:49.508Z,6.22
2019-05-03T03:29:22.098Z,6.70
2019-05-03T03:32:08.475Z,11.93
2019-05-03T03:37:10.033Z,8.85
2019-05-03T03:39:37.352Z,13.50
2019-05-03T03:42:10.260Z,9.73
2019-05-03T03:44:39.717Z,8.93
2019-05-03T03:47:11.800Z,7.47
2019-05-03T03:49:46.303Z,7.53
2019-05-03T03:52:17.053Z,7.17
2019-05-03T03:54:48.150Z,7.85
2019-05-03T03:57:17.753Z,6.77
2019-05-03T03:59:47.672Z,7.92
2019-05-03T04:02:17.621Z,8.15
2019-05-03T04:04:47.190Z,8.60
2019-05-03T04:07:17.181Z,8.85
2019-05-03T04:09:46.779Z,9.85
2019-05-03T04:12:20.308Z,9.00
2019-05-03T04:15:07.918Z,8.58
2019-05-03T04:17:51.198Z,8.35
2019-05-03T04:20:25.381Z,9.43
2019-05-03T04:22:55.829Z,9.53
2019-05-03T04:25:26.491Z,9.10
2019-05-03T04:27:56.255Z,10.00
2019-05-03T04:30:26.035Z,9.20
2019-05-03T04:32:57.332Z,9.05
2019-05-03T04:35:26.963Z,9.97
2019-05-03T04:37:56.517Z,8.93
2019-05-03T04:40:27.588Z,9.95
2019-05-03T04:42:57.055Z,9.48
2019-05-03T04:45:26.485Z,9.18
2019-05-03T04:47:56.355Z,8.90
2019-05-03T04:50:27.679Z,10.60
2019-05-03T04:52:58.667Z,9.40
2019-05-03T04:55:28.118Z,8.15
2019-05-03T04:58:01.314Z,8.80
2019-05-03T05:00:30.731Z,7.60
2019-05-03T05:03:00.119Z,7.85
2019-05-03T05:05:31.257Z,7.58
2019-05-03T05:08:00.712Z,6.65
2019-05-03T05:10:30.060Z,8.95
2019-05-03T05:12:59.399Z,6.62
2019-05-03T05:15:28.780Z,6.17
2019-05-03T05:18:06.176Z,5.70
2019-05-03T05:20:37.440Z,5.47
2019-05-03T05:23:06.814Z,4.95
2019-05-03T05:25:40.739Z,5.97
2019-05-03T05:28:30.007Z,5.53
2019-05-03T05:30:59.362Z,4.90
2019-05-03T05:33:28.824Z,4.75
2019-05-03T05:35:58.304Z,3.80
2019-05-03T05:38:27.665Z,4.42
2019-05-03T05:40:57.010Z,3.70
2019-05-03T05:43:28.087Z,3.47
2019-05-03T05:45:59.575Z,3.87
2019-05-03T05:48:36.410Z,4.30
2019-05-03T05:51:09.746Z,6.05
2019-05-03T05:53:42.353Z,4.10
2019-05-03T05:56:17.640Z,4.40
2019-05-03T05:58:51.261Z,4.17
2019-05-03T06:01:32.803Z,3.87
2019-05-03T06:04:02.203Z,4.70
2019-05-03T06:06:34.842Z,4.37
2019-05-03T06:09:20.023Z,4.20
2019-05-03T06:11:51.112Z,3.50
2019-05-03T06:14:28.114Z,3.60
2019-05-03T06:17:10.319Z,3.75
2019-05-03T06:19:44.544Z,3.05
2019-05-03T06:22:18.132Z,3.55
2019-05-03T06:25:01.267Z,3.92
2019-05-03T06:27:35.169Z,3.67
2019-05-03T06:30:11.738Z,2.47
2019-05-03T06:32:42.375Z,3.60
2019-05-03T06:35:15.183Z,3.20
2019-05-03T06:37:46.106Z,3.67
2019-05-03T06:40:16.036Z,2.47
2019-05-03T06:42:52.389Z,2.40
2019-05-03T06:45:16.856Z,2.57
2019-05-03T06:47:49.923Z,2.70
2019-05-03T06:50:19.528Z,2.57
2019-05-03T06:52:51.195Z,2.70
2019-05-03T06:55:20.599Z,2.00
2019-05-03T06:57:50.081Z,1.95
2019-05-03T07:00:24.927Z,1.70
2019-05-03T07:02:58.836Z,2.30
2019-05-03T07:05:38.600Z,2.10
2019-05-03T07:08:25.802Z,2.47
2019-05-03T07:10:56.910Z,1.95
2019-05-03T07:13:26.410Z,1.87
2019-05-03T07:15:56.058Z,2.27
2019-05-03T07:18:25.582Z,1.77
2019-05-03T07:20:57.175Z,1.85
2019-05-03T07:23:26.690Z,2.20
2019-05-03T07:25:56.114Z,2.22
2019-05-03T07:28:25.540Z,2.33
2019-05-03T07:30:58.040Z,2.50
2019-05-03T07:33:31.942Z,2.17
2019-05-03T07:36:01.340Z,2.25
2019-05-03T07:38:30.748Z,2.05
2019-05-03T07:41:00.120Z,1.90
2019-05-03T07:43:29.570Z,2.10
2019-05-03T07:45:59.010Z,2.55
2019-05-03T07:48:28.458Z,1.98
2019-05-03T07:50:57.917Z,2.12
2019-05-03T07:53:27.441Z,3.10
2019-05-03T07:56:05.190Z,1.67
2019-05-03T07:58:39.076Z,1.32
2019-05-03T08:01:25.269Z,1.77
2019-05-03T08:03:55.145Z,2.22
2019-05-03T08:06:24.887Z,1.67
2019-05-03T08:08:54.593Z,2.08
2019-05-03T08:11:24.867Z,1.85
2019-05-03T08:13:55.003Z,2.42
2019-05-03T08:16:25.255Z,1.80
2019-05-03T08:18:56.286Z,1.98
2019-05-03T08:21:25.659Z,1.82
2019-05-03T08:23:56.682Z,1.90
2019-05-03T08:26:26.086Z,1.90
2019-05-03T08:28:55.494Z,2.00
2019-05-03T08:31:26.670Z,1.65
2019-05-03T08:34:07.499Z,2.02
2019-05-03T08:36:38.493Z,2.15
2019-05-03T08:39:08.027Z,1.37
2019-05-03T08:41:40.580Z,2.15
2019-05-03T08:44:09.922Z,1.70
2019-05-03T08:46:40.575Z,1.40
2019-05-03T08:49:10.000Z,2.58
2019-05-03T08:51:39.348Z,1.98
2019-05-03T08:54:08.715Z,1.72
2019-05-03T08:56:39.627Z,1.60
2019-05-03T08:59:09.059Z,2.30
2019-05-03T09:01:39.496Z,1.60
2019-05-03T09:04:08.943Z,2.27
2019-05-03T09:06:39.828Z,2.00
2019-05-03T09:09:15.112Z,1.75
2019-05-03T09:11:45.407Z,1.98
2019-05-03T09:14:16.734Z,1.83
2019-05-03T09:16:46.221Z,2.00
2019-05-03T09:19:16.043Z,1.82
2019-05-03T09:21:45.487Z,1.82
2019-05-03T09:24:16.881Z,2.30
2019-05-03T09:26:45.932Z,1.60
2019-05-03T09:29:15.342Z,2.30
2019-05-03T09:31:44.782Z,2.00
2019-05-03T09:34:16.598Z,2.10
2019-05-03T09:36:48.470Z,2.40
2019-05-03T09:39:19.845Z,2.00
2019-05-03T09:44:17.459Z,1.50
2019-05-03T09:46:47.788Z,1.62
2019-05-03T09:49:17.174Z,2.20
2019-05-03T09:51:46.597Z,2.27
2019-05-03T09:54:25.493Z,2.20
2019-05-03T09:56:59.647Z,1.75
2019-05-03T09:59:29.983Z,2.60
2019-05-03T10:02:04.471Z,1.60
2019-05-03T10:04:33.281Z,1.72
2019-05-03T10:07:02.684Z,2.02
2019-05-03T10:09:32.120Z,1.67
2019-05-03T10:12:02.345Z,2.08
2019-05-03T10:14:31.706Z,1.87
2019-05-03T10:17:06.575Z,1.90
2019-05-03T10:19:40.107Z,2.45
2019-05-03T10:22:07.267Z,2.00
2019-05-03T10:24:38.252Z,2.00
2019-05-03T10:27:07.606Z,1.82
2019-05-03T10:29:36.971Z,2.12
2019-05-03T10:32:11.727Z,1.93
2019-05-03T10:34:42.732Z,1.65
2019-05-03T10:37:31.858Z,1.87
2019-05-03T10:40:05.813Z,1.80
2019-05-03T10:42:35.308Z,1.87
2019-05-03T10:45:07.212Z,1.60
2019-05-03T10:47:36.596Z,1.67
2019-05-03T10:50:09.179Z,1.45
2019-05-03T10:52:44.696Z,1.60
2019-05-03T10:55:15.891Z,2.15
2019-05-03T10:57:49.840Z,1.95
2019-05-03T11:00:42.426Z,2.20
2019-05-03T11:02:55.070Z,2.27
2019-05-03T11:05:24.588Z,1.90
2019-05-03T11:07:55.596Z,2.65
2019-05-03T11:10:25.330Z,2.55
2019-05-03T11:12:54.945Z,2.20
2019-05-03T11:15:26.069Z,2.15
2019-05-03T11:20:34.826Z,2.70
2019-05-03T11:23:07.005Z,1.82
2019-05-03T11:25:37.026Z,2.03
2019-05-03T11:28:11.259Z,1.85
2019-05-03T11:30:52.234Z,2.30
2019-05-03T11:35:49.209Z,2.77
2019-05-03T11:38:20.204Z,3.05
2019-05-03T11:43:19.711Z,2.33
2019-05-03T11:45:49.150Z,2.77
2019-05-03T11:48:18.493Z,2.13
2019-05-03T11:50:47.921Z,1.95
2019-05-03T11:53:18.348Z,2.33
2019-05-03T11:55:50.513Z,2.00
2019-05-03T11:58:22.669Z,2.22
2019-05-03T12:01:11.901Z,1.82
2019-05-03T12:03:29.960Z,2.27
2019-05-03T12:06:00.501Z,2.50
2019-05-03T12:08:29.911Z,2.43
2019-05-03T12:11:02.006Z,1.92
2019-05-03T12:13:31.730Z,1.92
2019-05-03T12:16:01.377Z,2.40
2019-05-03T12:18:44.790Z,2.17
2019-05-03T12:21:05.124Z,1.87
2019-05-03T12:23:36.718Z,2.07
2019-05-03T12:26:09.927Z,2.02
2019-05-03T12:28:36.694Z,2.10
2019-05-03T12:31:06.200Z,2.62
2019-05-03T12:33:35.696Z,2.00
2019-05-03T12:36:05.683Z,2.42
2019-05-03T12:38:35.202Z,2.65
2019-05-03T12:41:05.606Z,2.58
2019-05-03T12:43:35.261Z,2.02
2019-05-03T12:46:05.472Z,2.50
2019-05-03T12:48:35.525Z,2.60
2019-05-03T12:51:07.426Z,2.64
2019-05-03T12:53:37.243Z,2.40
2019-05-03T12:56:11.012Z,3.05
2019-05-03T12:58:51.268Z,2.73
2019-05-03T13:01:40.972Z,3.10
2019-05-03T13:04:06.497Z,3.17
2019-05-03T13:06:37.585Z,2.52
2019-05-03T13:09:07.360Z,3.43
2019-05-03T13:11:51.873Z,2.52
2019-05-03T13:14:11.035Z,2.60
2019-05-03T13:16:40.435Z,2.60
2019-05-03T13:19:09.869Z,2.76
2019-05-03T13:21:39.215Z,2.62
2019-05-03T13:24:21.865Z,3.37
2019-05-03T13:26:39.656Z,3.13
2019-05-03T13:29:09.115Z,3.77
2019-05-03T13:31:38.523Z,3.67
2019-05-03T13:34:07.868Z,3.37
2019-05-03T13:36:37.231Z,3.47
2019-05-03T13:39:13.965Z,3.70
2019-05-03T13:41:40.231Z,3.42
2019-05-03T13:44:09.634Z,3.40
2019-05-03T13:46:39.052Z,3.90
2019-05-03T13:49:09.533Z,3.80
2019-05-03T13:51:38.951Z,3.30
2019-05-03T13:54:09.856Z,4.53
2019-05-03T13:56:39.254Z,4.27
2019-05-03T13:59:18.535Z,5.37
2019-05-03T14:01:39.774Z,4.20
2019-05-03T14:04:09.286Z,4.45
2019-05-03T14:06:38.645Z,4.55
2019-05-03T14:09:08.175Z,4.78
2019-05-03T14:11:38.311Z,4.72
2019-05-03T14:14:07.748Z,4.80
2019-05-03T14:16:37.266Z,4.50
2019-05-03T14:19:08.264Z,4.65
2019-05-03T14:21:39.344Z,5.60
2019-05-03T14:24:12.076Z,4.87
2019-05-03T14:26:44.549Z,5.85
2019-05-03T14:31:45.397Z,4.47
2019-05-03T14:34:16.990Z,5.07
2019-05-03T14:36:45.773Z,4.77
2019-05-03T14:39:15.313Z,4.78
2019-05-03T14:41:46.794Z,5.35
2019-05-03T14:44:18.036Z,5.40
2019-05-03T14:46:46.959Z,4.67
2019-05-03T14:49:16.474Z,4.53
2019-05-03T14:51:48.864Z,4.97
2019-05-03T14:54:20.535Z,5.67
2019-05-03T14:57:02.249Z,4.67
2019-05-03T14:59:34.643Z,4.85
2019-05-03T15:02:08.809Z,4.62
2019-05-03T15:04:38.353Z,4.78
2019-05-03T15:07:07.716Z,4.22
2019-05-03T15:09:37.096Z,4.92
2019-05-03T15:12:07.561Z,4.15
2019-05-03T15:14:36.928Z,4.37
2019-05-03T15:17:06.313Z,3.70
2019-05-03T15:19:37.210Z,4.40
2019-05-03T15:22:06.679Z,3.83
2019-05-03T15:24:36.117Z,3.50
2019-05-03T15:27:05.685Z,3.83
2019-05-03T15:29:35.513Z,3.70
2019-05-03T15:32:06.103Z,3.67
2019-05-03T15:34:35.633Z,9.58
2019-05-03T15:37:06.180Z,5.25
2019-05-03T15:39:36.012Z,4.33
2019-05-03T15:42:05.678Z,4.42
2019-05-03T15:44:54.550Z,4.00
2019-05-03T15:47:35.038Z,5.80
2019-05-03T15:50:06.724Z,4.45
2019-05-03T15:52:36.139Z,4.40
2019-05-03T15:55:08.706Z,4.55
2019-05-03T15:57:38.146Z,4.72
2019-05-03T16:00:09.323Z,4.12
2019-05-03T16:02:39.980Z,4.42
2019-05-03T16:05:09.468Z,7.58
2019-05-03T16:07:38.925Z,4.05
2019-05-03T16:10:08.483Z,3.37
2019-05-03T16:12:37.823Z,3.45
2019-05-03T16:15:07.321Z,3.98
2019-05-03T16:17:36.808Z,4.28
2019-05-03T16:20:07.883Z,4.60
2019-05-03T16:22:38.212Z,4.53
2019-05-03T16:25:09.161Z,3.58
2019-05-03T16:27:41.375Z,4.03
2019-05-03T16:30:27.714Z,4.00
2019-05-03T16:32:57.087Z,3.33
2019-05-03T16:35:26.460Z,3.30
2019-05-03T16:37:56.990Z,3.37
2019-05-03T16:40:26.340Z,5.00
2019-05-03T16:42:55.717Z,9.23
2019-05-03T16:45:26.216Z,5.60
2019-05-03T16:47:55.578Z,6.10
2019-05-03T16:50:26.710Z,5.83
2019-05-03T16:52:56.174Z,4.10
2019-05-03T16:55:25.780Z,3.75
2019-05-03T16:57:56.295Z,3.95
2019-05-03T17:00:30.537Z,4.70
2019-05-03T17:03:01.504Z,3.90
2019-05-03T17:05:38.225Z,4.43
2019-05-03T17:08:18.237Z,4.12
2019-05-03T17:10:49.318Z,3.45
2019-05-03T17:13:18.654Z,3.17
2019-05-03T17:15:48.044Z,4.15
2019-05-03T17:18:17.430Z,3.60
2019-05-03T17:20:46.788Z,4.33
2019-05-03T17:23:16.238Z,4.28
2019-05-03T17:25:45.721Z,4.20
2019-05-03T17:28:16.223Z,3.77
2019-05-03T17:30:45.705Z,3.10
2019-05-03T17:33:17.691Z,3.40
2019-05-03T17:35:51.027Z,3.57
2019-05-03T17:38:20.435Z,4.08
2019-05-03T17:40:51.588Z,6.65
2019-05-03T17:43:27.660Z,5.63
2019-05-03T17:46:01.492Z,4.12
2019-05-03T17:48:30.863Z,5.90
2019-05-03T17:51:00.308Z,5.03
2019-05-03T17:53:37.367Z,4.08
2019-05-03T17:56:20.483Z,4.62
2019-05-03T17:58:55.022Z,3.05
2019-05-03T18:01:25.785Z,3.45
2019-05-03T18:04:08.358Z,3.57
2019-05-03T18:06:32.444Z,3.60
2019-05-03T18:09:04.472Z,3.60
2019-05-03T18:11:46.406Z,3.70
2019-05-03T18:14:15.778Z,3.25
2019-05-03T18:16:46.672Z,2.47
2019-05-03T18:19:16.048Z,2.93
2019-05-03T18:21:47.008Z,3.08
2019-05-03T18:24:18.092Z,3.50
2019-05-03T18:26:47.628Z,20.10
2019-05-03T18:29:17.195Z,13.20
2019-05-03T18:31:49.409Z,4.47
2019-05-03T18:34:22.265Z,4.10
2019-05-03T18:36:52.348Z,4.23
2019-05-03T18:39:25.167Z,3.05
2019-05-03T18:41:56.006Z,3.22
2019-05-03T18:44:27.078Z,3.42
2019-05-03T18:46:58.182Z,2.93
2019-05-03T18:49:27.718Z,2.90
2019-05-03T18:51:57.076Z,4.33
2019-05-03T18:54:26.504Z,3.87
2019-05-03T18:56:56.019Z,3.75
2019-05-03T18:59:25.458Z,3.90
2019-05-03T19:01:55.316Z,4.00
2019-05-03T19:04:34.642Z,9.13
2019-05-03T19:07:04.418Z,5.15
2019-05-03T19:09:39.739Z,4.92
2019-05-03T19:12:15.395Z,3.50
2019-05-03T19:14:47.642Z,4.30
2019-05-03T19:19:57.448Z,5.03
2019-05-03T19:22:26.998Z,4.20
2019-05-03T19:24:56.510Z,3.62
2019-05-03T19:27:25.963Z,3.17
2019-05-03T19:29:55.585Z,3.33
2019-05-03T19:32:28.048Z,4.47
2019-05-03T19:34:56.383Z,3.10
2019-05-03T19:37:28.681Z,2.95
2019-05-03T19:40:01.440Z,3.65
2019-05-03T19:42:30.897Z,3.17
2019-05-03T19:45:00.338Z,3.70
2019-05-03T19:47:32.284Z,5.37
2019-05-03T19:50:01.736Z,3.47
2019-05-03T19:52:37.020Z,3.35
2019-05-03T19:55:07.732Z,3.15
2019-05-03T20:00:08.994Z,3.83
2019-05-03T20:02:45.271Z,3.83
2019-05-03T20:05:21.774Z,4.35
2019-05-03T20:08:08.986Z,4.40
2019-05-03T20:10:38.347Z,3.83
2019-05-03T20:13:07.725Z,4.03
2019-05-03T20:15:37.099Z,3.60
2019-05-03T20:18:06.528Z,3.72
2019-05-03T20:20:37.192Z,4.30
2019-05-03T20:23:07.648Z,3.85
2019-05-03T20:25:37.091Z,3.75
2019-05-03T20:28:06.524Z,3.87
2019-05-03T20:30:38.836Z,4.10
2019-05-03T20:33:08.312Z,3.70
2019-05-03T20:35:37.837Z,3.62
2019-05-03T20:38:07.261Z,4.72
2019-05-03T20:40:38.954Z,3.67
2019-05-03T20:43:10.160Z,3.70
2019-05-03T20:45:44.578Z,3.00
2019-05-03T20:48:18.314Z,3.77
2019-05-03T20:50:50.907Z,3.45
2019-05-03T20:53:20.332Z,5.62
2019-05-03T20:55:49.778Z,19.35
2019-05-03T20:58:19.137Z,4.00
2019-05-03T21:00:48.485Z,3.65
2019-05-03T21:03:17.843Z,3.12
2019-05-03T21:05:47.354Z,3.05
2019-05-03T21:08:16.782Z,3.80
2019-05-03T21:10:47.260Z,4.35
2019-05-03T21:13:18.300Z,3.65
2019-05-03T21:15:52.139Z,3.55
2019-05-03T21:18:25.645Z,3.57
2019-05-03T21:21:08.520Z,3.80
2019-05-03T21:23:39.571Z,3.60
2019-05-03T21:26:16.391Z,4.57
2019-05-03T21:28:44.941Z,4.17
2019-05-03T21:31:15.652Z,4.80
2019-05-03T21:33:45.337Z,4.90
2019-05-03T21:36:15.177Z,4.95
2019-05-03T21:38:44.602Z,4.78
2019-05-03T21:41:15.609Z,5.30
2019-05-03T21:43:45.244Z,4.87
2019-05-03T21:46:18.841Z,5.15
2019-05-03T21:49:05.937Z,5.17
2019-05-03T21:51:35.393Z,3.67
2019-05-03T21:54:06.816Z,3.47
2019-05-03T21:56:36.044Z,4.03
2019-05-03T21:59:05.727Z,3.33
2019-05-03T22:01:37.515Z,2.87
2019-05-03T22:04:08.258Z,3.15
2019-05-03T22:06:37.613Z,3.10
2019-05-03T22:09:07.227Z,3.25
2019-05-03T22:11:39.566Z,3.10
2019-05-03T22:14:10.687Z,3.10
2019-05-03T22:16:50.968Z,3.90
2019-05-03T22:19:20.829Z,4.20
2019-05-03T22:21:56.361Z,4.08
2019-05-03T22:24:36.114Z,3.80
2019-05-03T22:27:07.765Z,3.58
2019-05-03T22:29:38.765Z,4.13
2019-05-03T22:32:08.459Z,4.20
2019-05-03T22:34:37.807Z,3.70
2019-05-03T22:37:07.192Z,3.80
2019-05-03T22:39:38.645Z,4.08
2019-05-03T22:42:08.017Z,4.15
2019-05-03T22:44:37.591Z,4.28
2019-05-03T22:47:07.119Z,4.10
2019-05-03T22:49:37.351Z,4.03
2019-05-03T22:52:06.841Z,3.35
2019-05-03T22:54:36.208Z,3.40
2019-05-03T22:57:05.648Z,3.75
2019-05-03T22:59:35.082Z,3.42
2019-05-03T23:02:06.774Z,3.58
2019-05-03T23:04:37.455Z,3.30
2019-05-03T23:07:06.896Z,3.40
2019-05-03T23:09:36.276Z,3.62
2019-05-03T23:12:06.175Z,3.55
2019-05-03T23:14:35.531Z,3.12
2019-05-03T23:17:05.228Z,3.83
2019-05-03T23:19:36.207Z,3.02
2019-05-03T23:22:08.352Z,3.10
2019-05-03T23:24:37.782Z,3.25
2019-05-03T23:27:07.192Z,3.27
2019-05-03T23:29:39.712Z,3.67
2019-05-03T23:32:09.135Z,3.55
2019-05-03T23:34:38.577Z,3.87
2019-05-03T23:37:08.082Z,4.22
2019-05-03T23:39:37.509Z,3.83
2019-05-03T23:42:06.934Z,3.40
2019-05-03T23:44:37.644Z,3.50
2019-05-03T23:47:14.670Z,4.17
2019-05-03T23:49:45.645Z,4.15
2019-05-03T23:52:25.800Z,3.85
2019-05-03T23:55:06.165Z,3.85
2019-05-03T23:57:35.736Z,4.00
